createdAt,value
2022-11-27T00:00:05.314Z,16.8
2022-11-27T00:01:07.515Z,16.9
2022-11-27T00:02:10.088Z,16.8
2022-11-27T00:03:12.796Z,16.8
2022-11-27T00:04:15.999Z,16.8
2022-11-27T00:05:18.937Z,16.8
2022-11-27T00:06:20.874Z,16.8
2022-11-27T00:07:23.657Z,16.8
2022-11-27T00:08:26.123Z,16.9
2022-11-27T00:09:28.310Z,16.9
2022-11-27T00:10:30.794Z,16.9
2022-11-27T00:11:33.032Z,16.9
2022-11-27T00:12:35.564Z,16.9
2022-11-27T00:13:37.494Z,16.9
2022-11-27T00:14:39.698Z,16.9
2022-11-27T00:15:41.840Z,17
2022-11-27T00:16:44.233Z,17
2022-11-27T00:17:46.442Z,17
2022-11-27T00:18:48.927Z,16.9
2022-11-27T00:19:51.420Z,17
2022-11-27T00:20:53.914Z,17
2022-11-27T00:21:56.111Z,17
2022-11-27T00:22:58.593Z,17
2022-11-27T00:24:00.815Z,16.9
2022-11-27T00:25:03.353Z,17
2022-11-27T00:26:05.253Z,16.9
2022-11-27T00:27:07.717Z,17
2022-11-27T00:28:10.232Z,17
2022-11-27T00:29:12.709Z,17
2022-11-27T00:30:15.220Z,17
2022-11-27T00:31:17.791Z,17
2022-11-27T00:32:20.290Z,17
2022-11-27T00:33:22.524Z,16.9
2022-11-27T00:34:25.027Z,17
2022-11-27T00:35:26.962Z,17
2022-11-27T00:36:29.173Z,17
2022-11-27T00:37:31.669Z,17.1
2022-11-27T00:39:39.136Z,17.1
2022-11-27T00:40:41.619Z,17
2022-11-27T00:41:43.817Z,17
2022-11-27T00:42:46.320Z,17
2022-11-27T00:43:48.534Z,17
2022-11-27T00:44:50.780Z,17
2022-11-27T00:45:52.947Z,17.1
2022-11-27T00:46:55.921Z,17
2022-11-27T00:47:58.418Z,17.1
2022-11-27T00:49:00.916Z,17
2022-11-27T00:50:03.415Z,17.1
2022-11-27T00:51:05.633Z,17
2022-11-27T00:52:07.547Z,17.1
2022-11-27T00:53:09.755Z,17
2022-11-27T00:54:12.237Z,17.1
2022-11-27T00:55:14.419Z,17
2022-11-27T00:56:16.622Z,17.1
2022-11-27T00:57:19.113Z,17
2022-11-27T00:58:21.328Z,17
2022-11-27T00:59:23.843Z,17
2022-11-27T01:00:26.153Z,17.1
2022-11-27T01:01:28.804Z,17.2
2022-11-27T01:02:31.886Z,17.1
2022-11-27T01:03:34.586Z,17.1
2022-11-27T01:04:36.902Z,17
2022-11-27T01:05:40.701Z,17.1
2022-11-27T01:06:43.176Z,17.2
2022-11-27T01:07:45.207Z,17.1
2022-11-27T01:08:47.739Z,17.1
2022-11-27T01:09:50.233Z,17.1
2022-11-27T01:11:57.473Z,17.1
2022-11-27T01:12:59.976Z,17.1
2022-11-27T01:14:02.481Z,17.1
2022-11-27T01:15:05.010Z,17
2022-11-27T01:16:07.757Z,17.1
2022-11-27T01:17:10.531Z,17
2022-11-27T01:18:13.108Z,17.1
2022-11-27T01:19:15.588Z,17.1
2022-11-27T01:20:17.781Z,17.1
2022-11-27T01:21:19.416Z,17.2
2022-11-27T01:22:21.635Z,17.1
2022-11-27T01:23:23.839Z,17.1
2022-11-27T01:24:26.310Z,17.2
2022-11-27T01:25:28.787Z,17.1
2022-11-27T01:26:30.983Z,17.1
2022-11-27T01:27:33.474Z,17
2022-11-27T01:28:35.957Z,17.1
2022-11-27T01:29:38.444Z,17.2
2022-11-27T01:30:40.951Z,17.1
2022-11-27T01:31:43.267Z,17.2
2022-11-27T01:32:45.744Z,17.2
2022-11-27T01:33:48.313Z,17.1
2022-11-27T01:34:50.221Z,17.1
2022-11-27T01:35:57.163Z,17.1
2022-11-27T01:36:59.663Z,17.1
2022-11-27T01:38:02.214Z,17.1
2022-11-27T01:39:04.176Z,17.2
2022-11-27T01:40:06.105Z,17.1
2022-11-27T01:41:08.056Z,17.2
2022-11-27T01:42:10.541Z,17.2
2022-11-27T01:43:13.027Z,17.1
2022-11-27T01:44:15.209Z,17.1
2022-11-27T01:45:17.688Z,17.2
2022-11-27T01:46:20.277Z,17.2
2022-11-27T01:47:23.117Z,17.1
2022-11-27T01:48:25.616Z,17.1
2022-11-27T01:49:28.203Z,17.2
2022-11-27T01:50:30.736Z,17.2
2022-11-27T01:51:32.685Z,17.1
2022-11-27T01:52:35.159Z,17.2
2022-11-27T01:53:37.663Z,17.2
2022-11-27T01:54:40.582Z,17.2
2022-11-27T01:55:44.001Z,17.1
2022-11-27T01:56:46.472Z,17.2
2022-11-27T01:57:48.979Z,17.2
2022-11-27T01:58:51.167Z,17.2
2022-11-27T01:59:53.093Z,17.2
2022-11-27T02:00:55.301Z,17.2
2022-11-27T02:01:58.000Z,17.3
2022-11-27T02:03:00.480Z,17.1
2022-11-27T02:04:02.808Z,17.2
2022-11-27T02:05:05.146Z,17.2
2022-11-27T02:06:07.626Z,17.2
2022-11-27T02:07:10.302Z,17.1
2022-11-27T02:08:12.676Z,17.1
2022-11-27T02:09:15.180Z,17.1
2022-11-27T02:10:17.664Z,17.2
2022-11-27T02:11:20.135Z,17.2
2022-11-27T02:12:22.616Z,17.1
2022-11-27T02:13:24.830Z,17.2
2022-11-27T02:14:27.056Z,17.3
2022-11-27T02:15:29.537Z,17.2
2022-11-27T02:16:31.852Z,17.2
2022-11-27T02:17:34.625Z,17.2
2022-11-27T02:18:37.106Z,17.2
2022-11-27T02:19:39.284Z,17.2
2022-11-27T02:20:41.761Z,17.2
2022-11-27T02:21:44.244Z,17.3
2022-11-27T02:22:46.743Z,17.3
2022-11-27T02:23:49.237Z,17.2
2022-11-27T02:24:51.754Z,17.2
2022-11-27T02:25:53.932Z,17.2
2022-11-27T02:26:56.150Z,17.2
2022-11-27T02:27:58.365Z,17.3
2022-11-27T02:29:00.852Z,17.3
2022-11-27T02:30:03.074Z,17.2
2022-11-27T02:31:05.307Z,17.2
2022-11-27T02:32:08.057Z,17.2
2022-11-27T02:33:10.249Z,17.3
2022-11-27T02:34:12.452Z,17.2
2022-11-27T02:35:14.938Z,17.3
2022-11-27T02:36:17.424Z,17.2
2022-11-27T02:37:19.916Z,17.2
2022-11-27T02:38:22.405Z,17.2
2022-11-27T02:39:24.604Z,17.2
2022-11-27T02:40:27.086Z,17.2
2022-11-27T02:41:29.290Z,17.2
2022-11-27T02:42:32.012Z,17.2
2022-11-27T02:43:34.830Z,17.2
2022-11-27T02:44:37.450Z,17.3
2022-11-27T02:45:40.946Z,17.3
2022-11-27T02:46:43.594Z,17.3
2022-11-27T02:47:46.431Z,17.3
2022-11-27T02:48:48.932Z,17.2
2022-11-27T02:49:51.140Z,17.3
2022-11-27T02:50:53.373Z,17.3
2022-11-27T02:51:55.580Z,17.2
2022-11-27T02:52:57.769Z,17.3
2022-11-27T02:54:00.243Z,17.3
2022-11-27T02:55:02.430Z,17.2
2022-11-27T02:56:04.641Z,17.2
2022-11-27T02:57:06.852Z,17.2
2022-11-27T02:58:09.279Z,17.3
2022-11-27T02:59:11.859Z,17.2
2022-11-27T03:00:14.063Z,17.2
2022-11-27T03:01:16.678Z,17.2
2022-11-27T03:02:19.557Z,17.2
2022-11-27T03:03:22.435Z,17.2
2022-11-27T03:04:24.079Z,17.3
2022-11-27T03:05:26.283Z,17.3
2022-11-27T03:06:28.201Z,17.2
2022-11-27T03:07:30.767Z,17.3
2022-11-27T03:08:33.269Z,17.2
2022-11-27T03:09:35.742Z,17.2
2022-11-27T03:10:37.645Z,17.2
2022-11-27T03:11:39.851Z,17.2
2022-11-27T03:12:42.054Z,17.4
2022-11-27T03:13:44.781Z,17.2
2022-11-27T03:14:47.602Z,17.3
2022-11-27T03:15:50.000Z,17.3
2022-11-27T03:16:52.828Z,17.3
2022-11-27T03:17:54.547Z,17.2
2022-11-27T03:18:57.131Z,17.2
2022-11-27T03:19:59.348Z,17.2
2022-11-27T03:21:01.825Z,17.2
2022-11-27T03:22:04.311Z,17.2
2022-11-27T03:23:06.513Z,17.2
2022-11-27T03:24:08.428Z,17.2
2022-11-27T03:25:10.928Z,17.3
2022-11-27T03:26:13.098Z,17.3
2022-11-27T03:27:15.584Z,17.2
2022-11-27T03:28:17.931Z,17.3
2022-11-27T03:29:20.093Z,17.2
2022-11-27T03:30:26.047Z,17.3
2022-11-27T03:31:28.999Z,17.3
2022-11-27T03:32:31.438Z,17.2
2022-11-27T03:33:33.653Z,17.4
2022-11-27T03:34:36.125Z,17.3
2022-11-27T03:35:38.556Z,17.3
2022-11-27T03:36:40.468Z,17.4
2022-11-27T03:37:42.677Z,17.3
2022-11-27T03:38:45.161Z,17.3
2022-11-27T03:39:47.647Z,17.3
2022-11-27T03:40:50.118Z,17.3
2022-11-27T03:41:52.329Z,17.3
2022-11-27T03:42:54.804Z,17.3
2022-11-27T03:43:57.029Z,17.3
2022-11-27T03:44:59.733Z,17.2
2022-11-27T03:46:01.637Z,17.3
2022-11-27T03:47:04.561Z,17.3
2022-11-27T03:48:07.391Z,17.3
2022-11-27T03:49:09.287Z,17.3
2022-11-27T03:50:11.771Z,17.3
2022-11-27T03:51:13.965Z,17.3
2022-11-27T03:52:16.447Z,17.3
2022-11-27T03:53:18.366Z,17.3
2022-11-27T03:54:20.573Z,17.4
2022-11-27T03:55:23.056Z,17.2
2022-11-27T03:56:25.258Z,17.3
2022-11-27T03:57:27.199Z,17.3
2022-11-27T03:58:29.683Z,17.3
2022-11-27T03:59:31.873Z,17.3
2022-11-27T04:00:34.590Z,17.3
2022-11-27T04:01:37.184Z,17.3
2022-11-27T04:02:40.214Z,17.3
2022-11-27T04:03:42.533Z,17.3
2022-11-27T04:04:45.035Z,17.3
2022-11-27T04:05:47.226Z,17.4
2022-11-27T04:06:49.824Z,17.3
2022-11-27T04:07:52.028Z,17.3
2022-11-27T04:08:54.587Z,17.3
2022-11-27T04:09:56.786Z,17.3
2022-11-27T04:10:59.267Z,17.3
2022-11-27T04:12:01.739Z,17.2
2022-11-27T04:13:03.943Z,17.3
2022-11-27T04:14:06.407Z,17.3
2022-11-27T04:15:07.785Z,17.2
2022-11-27T04:16:10.649Z,17.2
2022-11-27T04:17:13.183Z,17.2
2022-11-27T04:18:16.010Z,17.3
2022-11-27T04:19:18.506Z,17.3
2022-11-27T04:20:20.984Z,17.2
2022-11-27T04:21:23.467Z,17.2
2022-11-27T04:22:25.668Z,17.3
2022-11-27T04:23:27.887Z,17.3
2022-11-27T04:24:30.098Z,17.3
2022-11-27T04:25:32.288Z,17.2
2022-11-27T04:26:34.515Z,17.3
2022-11-27T04:27:36.449Z,17.2
2022-11-27T04:28:38.650Z,17.3
2022-11-27T04:29:40.849Z,17.2
2022-11-27T04:30:43.336Z,17.2
2022-11-27T04:31:45.951Z,17.2
2022-11-27T04:32:48.468Z,17.2
2022-11-27T04:33:51.276Z,17.2
2022-11-27T04:34:53.772Z,17.2
2022-11-27T04:35:56.276Z,17.2
2022-11-27T04:36:58.764Z,17.1
2022-11-27T04:38:00.698Z,17.1
2022-11-27T04:39:02.897Z,17.1
2022-11-27T04:40:05.375Z,17.2
2022-11-27T04:41:07.577Z,17.2
2022-11-27T04:42:10.048Z,17.1
2022-11-27T04:43:12.264Z,17.2
2022-11-27T04:44:14.197Z,17.2
2022-11-27T04:45:16.722Z,17.2
2022-11-27T04:46:18.770Z,17.2
2022-11-27T04:47:21.176Z,17.2
2022-11-27T04:48:23.650Z,17.1
2022-11-27T04:49:26.474Z,17.2
2022-11-27T04:50:28.954Z,17.1
2022-11-27T04:51:31.435Z,17.1
2022-11-27T04:52:33.913Z,17.2
2022-11-27T04:53:36.128Z,17.2
2022-11-27T04:54:39.184Z,17.1
2022-11-27T04:55:42.674Z,17.1
2022-11-27T04:56:44.875Z,17.1
2022-11-27T04:57:47.088Z,17.1
2022-11-27T04:58:49.577Z,17.2
2022-11-27T04:59:52.081Z,17.1
2022-11-27T05:00:54.404Z,17.1
2022-11-27T05:01:57.042Z,17.1
2022-11-27T05:04:04.746Z,17.1
2022-11-27T05:05:07.604Z,17.1
2022-11-27T05:06:10.079Z,17.1
2022-11-27T05:07:12.154Z,17.2
2022-11-27T05:08:14.481Z,17.2
2022-11-27T05:09:16.965Z,17.1
2022-11-27T05:10:19.447Z,17
2022-11-27T05:11:21.368Z,17.1
2022-11-27T05:12:23.849Z,17.2
2022-11-27T05:13:26.325Z,17.1
2022-11-27T05:14:28.819Z,17
2022-11-27T05:15:31.109Z,17.1
2022-11-27T05:16:33.800Z,17.1
2022-11-27T05:17:36.229Z,17
2022-11-27T05:18:38.709Z,17.1
2022-11-27T05:19:41.481Z,17.1
2022-11-27T05:20:44.317Z,17
2022-11-27T05:21:46.791Z,17.1
2022-11-27T05:22:49.262Z,17
2022-11-27T05:23:51.743Z,17.1
2022-11-27T05:24:54.086Z,17.2
2022-11-27T05:25:56.280Z,17.1
2022-11-27T05:26:57.944Z,17.1
2022-11-27T05:28:00.452Z,17
2022-11-27T05:29:02.928Z,17.1
2022-11-27T05:30:04.588Z,17.1
2022-11-27T05:31:07.162Z,17
2022-11-27T05:32:10.001Z,17
2022-11-27T05:33:12.479Z,17
2022-11-27T05:34:14.961Z,17.1
2022-11-27T05:35:17.409Z,17
2022-11-27T05:36:20.237Z,17
2022-11-27T05:37:22.184Z,17
2022-11-27T05:38:24.390Z,17
2022-11-27T05:39:26.602Z,17
2022-11-27T05:40:29.080Z,17
2022-11-27T05:41:31.561Z,17.1
2022-11-27T05:42:33.491Z,17
2022-11-27T05:43:35.682Z,17.1
2022-11-27T05:44:38.125Z,17
2022-11-27T05:45:41.772Z,17.1
2022-11-27T05:46:44.522Z,17.1
2022-11-27T05:47:47.036Z,17.1
2022-11-27T05:48:49.527Z,17
2022-11-27T05:49:51.443Z,17.1
2022-11-27T05:50:59.935Z,17
2022-11-27T05:52:04.934Z,17.1
2022-11-27T05:53:05.103Z,17.1
2022-11-27T05:54:07.961Z,17
2022-11-27T05:55:10.429Z,17
2022-11-27T05:56:12.911Z,17.1
2022-11-27T05:57:15.392Z,17
2022-11-27T05:58:17.875Z,17
2022-11-27T05:59:20.074Z,17
2022-11-27T06:00:22.557Z,17
2022-11-27T06:01:25.027Z,17.1
2022-11-27T06:03:32.410Z,17.1
2022-11-27T06:04:35.122Z,17
2022-11-27T06:05:37.324Z,17
2022-11-27T06:06:39.652Z,17.1
2022-11-27T06:07:42.284Z,17
2022-11-27T06:08:45.204Z,17.1
2022-11-27T06:09:48.035Z,17
2022-11-27T06:10:50.259Z,17
2022-11-27T06:11:52.736Z,17.1
2022-11-27T06:12:55.246Z,17
2022-11-27T06:13:57.423Z,17
2022-11-27T06:14:59.918Z,17
2022-11-27T06:16:02.461Z,17
2022-11-27T06:17:04.843Z,17
2022-11-27T06:18:07.353Z,17
2022-11-27T06:19:09.837Z,17
2022-11-27T06:20:12.316Z,17.1
2022-11-27T06:21:14.501Z,17
2022-11-27T06:22:17.087Z,17
2022-11-27T06:23:19.292Z,17
2022-11-27T06:24:21.880Z,17
2022-11-27T06:25:24.685Z,17
2022-11-27T06:26:26.883Z,17.1
2022-11-27T06:27:29.079Z,17
2022-11-27T06:28:31.281Z,17
2022-11-27T06:29:33.481Z,17
2022-11-27T06:30:35.677Z,17
2022-11-27T06:31:38.349Z,17
2022-11-27T06:32:40.779Z,17
2022-11-27T06:33:42.981Z,17
2022-11-27T06:34:45.454Z,17
2022-11-27T06:35:48.005Z,17
2022-11-27T06:36:50.485Z,17
2022-11-27T06:37:53.071Z,17
2022-11-27T06:38:55.267Z,17
2022-11-27T06:39:57.868Z,17
2022-11-27T06:41:00.416Z,16.9
2022-11-27T06:42:02.614Z,17
2022-11-27T06:43:04.541Z,17
2022-11-27T06:44:07.039Z,17.1
2022-11-27T06:45:09.523Z,17.1
2022-11-27T06:46:12.209Z,17
2022-11-27T06:47:15.098Z,17
2022-11-27T06:48:17.577Z,16.9
2022-11-27T06:49:19.767Z,17
2022-11-27T06:50:21.720Z,17
2022-11-27T06:51:24.209Z,17
2022-11-27T06:52:26.709Z,16.9
2022-11-27T06:53:29.299Z,17
2022-11-27T06:54:31.211Z,16.9
2022-11-27T06:55:33.563Z,16.9
2022-11-27T06:56:36.127Z,17
2022-11-27T06:57:38.619Z,16.9
2022-11-27T06:58:41.198Z,16.9
2022-11-27T06:59:43.129Z,17
2022-11-27T07:00:45.191Z,16.9
2022-11-27T07:01:47.741Z,17
2022-11-27T07:02:50.484Z,17
2022-11-27T07:03:52.687Z,17
2022-11-27T07:04:54.887Z,17
2022-11-27T07:05:57.091Z,17
2022-11-27T07:06:59.289Z,17
2022-11-27T07:08:01.897Z,16.9
2022-11-27T07:09:04.856Z,17
2022-11-27T07:10:07.072Z,17
2022-11-27T07:11:09.667Z,16.9
2022-11-27T07:12:12.508Z,17
2022-11-27T07:13:14.696Z,17
2022-11-27T07:14:16.891Z,17
2022-11-27T07:15:18.792Z,16.9
2022-11-27T07:16:21.376Z,17
2022-11-27T07:17:24.267Z,16.8
2022-11-27T07:18:26.762Z,17
2022-11-27T07:19:29.245Z,17
2022-11-27T07:20:31.733Z,16.9
2022-11-27T07:21:33.953Z,17
2022-11-27T07:22:36.466Z,17
2022-11-27T07:23:38.937Z,17
2022-11-27T07:24:41.976Z,17
2022-11-27T07:25:44.782Z,17
2022-11-27T07:26:47.186Z,16.9
2022-11-27T07:27:50.048Z,17
2022-11-27T07:28:52.559Z,16.9
2022-11-27T07:29:55.028Z,17
2022-11-27T07:30:56.973Z,16.9
2022-11-27T07:31:59.595Z,17
2022-11-27T07:33:01.501Z,16.9
2022-11-27T07:35:08.121Z,16.9
2022-11-27T07:36:10.619Z,17
2022-11-27T07:37:12.566Z,17
2022-11-27T07:38:14.490Z,16.9
2022-11-27T07:40:21.808Z,16.9
2022-11-27T07:41:24.766Z,16.9
2022-11-27T07:43:37.109Z,17
2022-11-27T07:44:40.640Z,16.9
2022-11-27T07:45:44.169Z,16.9
2022-11-27T07:46:46.878Z,17
2022-11-27T07:47:49.363Z,16.9
2022-11-27T07:48:51.570Z,16.9
2022-11-27T07:49:53.769Z,16.9
2022-11-27T07:50:56.254Z,16.9
2022-11-27T07:51:58.732Z,16.9
2022-11-27T07:53:00.648Z,16.9
2022-11-27T07:54:03.128Z,16.9
2022-11-27T07:55:05.333Z,16.9
2022-11-27T07:56:07.640Z,17
2022-11-27T07:57:10.126Z,17
2022-11-27T07:58:12.356Z,17
2022-11-27T07:59:14.693Z,16.9
2022-11-27T08:00:20.651Z,17
2022-11-27T08:01:23.729Z,16.9
2022-11-27T08:02:26.164Z,17
2022-11-27T08:03:28.402Z,16.9
2022-11-27T08:04:30.519Z,17
2022-11-27T08:05:32.955Z,17
2022-11-27T08:06:35.434Z,17
2022-11-27T08:07:38.121Z,17
2022-11-27T08:08:40.704Z,16.9
2022-11-27T08:09:42.929Z,16.9
2022-11-27T08:10:44.868Z,16.9
2022-11-27T08:11:47.205Z,17
2022-11-27T08:12:49.688Z,17
2022-11-27T08:13:51.899Z,16.9
2022-11-27T08:14:54.522Z,17
2022-11-27T08:15:57.081Z,16.9
2022-11-27T08:17:00.144Z,17
2022-11-27T08:18:02.624Z,16.9
2022-11-27T08:19:04.867Z,17
2022-11-27T08:20:07.109Z,16.9
2022-11-27T08:21:09.584Z,17
2022-11-27T08:22:12.069Z,17
2022-11-27T08:23:14.081Z,16.9
2022-11-27T08:24:16.014Z,16.8
2022-11-27T08:25:18.496Z,17
2022-11-27T08:26:20.986Z,16.9
2022-11-27T08:27:23.587Z,17
2022-11-27T08:28:25.819Z,17
2022-11-27T08:30:33.402Z,16.9
2022-11-27T08:31:36.019Z,17
2022-11-27T08:32:39.121Z,16.9
2022-11-27T08:33:41.428Z,17
2022-11-27T08:34:43.982Z,16.9
2022-11-27T08:35:46.704Z,16.9
2022-11-27T08:36:49.309Z,16.9
2022-11-27T08:37:51.789Z,17
2022-11-27T08:38:54.265Z,16.9
2022-11-27T08:39:56.742Z,16.9
2022-11-27T08:40:58.682Z,16.9
2022-11-27T08:42:01.172Z,17
2022-11-27T08:43:03.526Z,16.9
2022-11-27T08:45:10.463Z,17
2022-11-27T08:46:13.291Z,16.9
2022-11-27T08:47:15.846Z,16.9
2022-11-27T08:48:18.444Z,16.9
2022-11-27T08:49:20.082Z,16.9
2022-11-27T08:50:22.276Z,16.9
2022-11-27T08:51:24.745Z,16.9
2022-11-27T08:52:26.664Z,16.9
2022-11-27T08:53:28.864Z,16.9
2022-11-27T08:54:31.075Z,17
2022-11-27T08:55:33.564Z,16.9
2022-11-27T08:56:35.795Z,16.9
2022-11-27T08:57:37.718Z,16.9
2022-11-27T08:58:40.312Z,17
2022-11-27T08:59:42.884Z,17
2022-11-27T09:00:45.176Z,16.8
2022-11-27T09:01:47.755Z,16.9
2022-11-27T09:02:50.240Z,16.9
2022-11-27T09:03:53.203Z,16.9
2022-11-27T09:04:56.083Z,17
2022-11-27T09:05:58.299Z,16.9
2022-11-27T09:07:00.516Z,17
2022-11-27T09:08:02.059Z,17
2022-11-27T09:09:04.214Z,16.9
2022-11-27T09:10:06.707Z,16.8
2022-11-27T09:11:08.926Z,16.9
2022-11-27T09:12:11.399Z,17
2022-11-27T09:13:13.619Z,16.9
2022-11-27T09:14:16.217Z,16.8
2022-11-27T09:15:18.697Z,16.8
2022-11-27T09:16:21.411Z,16.9
2022-11-27T09:17:24.280Z,16.9
2022-11-27T09:18:26.772Z,17
2022-11-27T09:19:29.591Z,16.9
2022-11-27T09:20:32.082Z,16.9
2022-11-27T09:21:34.582Z,17
2022-11-27T09:22:37.071Z,16.9
2022-11-27T09:23:39.571Z,16.8
2022-11-27T09:24:42.510Z,17
2022-11-27T09:25:45.210Z,17
2022-11-27T09:26:47.405Z,16.9
2022-11-27T09:27:49.624Z,17
2022-11-27T09:28:52.100Z,16.8
2022-11-27T09:29:54.420Z,16.8
2022-11-27T09:30:56.427Z,16.9
2022-11-27T09:31:58.695Z,16.8
2022-11-27T09:33:01.632Z,16.9
2022-11-27T09:34:04.119Z,16.9
2022-11-27T09:35:06.997Z,16.9
2022-11-27T09:36:09.169Z,16.9
2022-11-27T09:37:11.650Z,16.8
2022-11-27T09:38:13.879Z,16.9
2022-11-27T09:39:16.068Z,16.8
2022-11-27T09:40:18.436Z,16.9
2022-11-27T09:41:20.647Z,16.9
2022-11-27T09:42:22.836Z,16.8
2022-11-27T09:43:24.771Z,16.9
2022-11-27T09:44:26.705Z,16.9
2022-11-27T09:46:33.740Z,16.9
2022-11-27T09:48:41.336Z,17
2022-11-27T09:49:43.811Z,16.9
2022-11-27T09:50:46.620Z,16.8
2022-11-27T09:51:48.819Z,16.8
2022-11-27T09:52:51.015Z,16.9
2022-11-27T09:53:53.222Z,16.9
2022-11-27T09:54:55.447Z,16.8
2022-11-27T09:55:57.376Z,16.9
2022-11-27T09:56:59.294Z,16.9
2022-11-27T09:58:01.510Z,16.9
2022-11-27T09:59:03.993Z,16.9
2022-11-27T10:00:06.478Z,16.9
2022-11-27T10:01:08.768Z,16.8
2022-11-27T10:02:11.636Z,17
2022-11-27T10:03:14.690Z,16.8
2022-11-27T10:04:16.935Z,16.8
2022-11-27T10:05:20.152Z,16.8
2022-11-27T10:06:24.844Z,16.9
2022-11-27T10:07:27.453Z,16.9
2022-11-27T10:08:30.206Z,16.9
2022-11-27T10:09:32.714Z,16.9
2022-11-27T10:10:35.216Z,16.9
2022-11-27T10:11:37.396Z,16.9
2022-11-27T10:12:39.320Z,16.8
2022-11-27T10:13:41.798Z,16.8
2022-11-27T10:14:44.218Z,16.9
2022-11-27T10:15:46.686Z,16.8
2022-11-27T10:16:49.357Z,16.9
2022-11-27T10:17:51.729Z,16.9
2022-11-27T10:18:53.938Z,16.9
2022-11-27T10:19:56.536Z,16.9
2022-11-27T10:20:59.012Z,16.8
2022-11-27T10:22:01.581Z,16.9
2022-11-27T10:23:03.809Z,16.9
2022-11-27T10:24:06.298Z,16.9
2022-11-27T10:25:08.247Z,16.9
2022-11-27T10:26:10.738Z,16.9
2022-11-27T10:27:12.937Z,16.8
2022-11-27T10:28:15.163Z,16.8
2022-11-27T10:29:17.640Z,16.8
2022-11-27T10:30:20.022Z,16.8
2022-11-27T10:31:22.478Z,16.9
2022-11-27T10:33:30.338Z,16.9
2022-11-27T10:34:32.272Z,16.8
2022-11-27T10:35:34.886Z,16.9
2022-11-27T10:36:37.089Z,16.8
2022-11-27T10:37:39.627Z,16.8
2022-11-27T10:38:42.169Z,16.9
2022-11-27T10:39:44.457Z,16.9
2022-11-27T10:40:46.708Z,16.8
2022-11-27T10:41:50.588Z,16.8
2022-11-27T10:42:52.828Z,16.8
2022-11-27T10:43:55.360Z,16.9
2022-11-27T10:44:57.314Z,16.9
2022-11-27T10:45:59.937Z,16.8
2022-11-27T10:47:02.444Z,16.8
2022-11-27T10:48:05.006Z,16.9
2022-11-27T10:49:07.609Z,16.9
2022-11-27T10:50:10.105Z,16.9
2022-11-27T10:51:12.175Z,16.8
2022-11-27T10:52:14.379Z,16.9
2022-11-27T10:53:17.218Z,16.9
2022-11-27T10:54:19.404Z,16.9
2022-11-27T10:55:21.910Z,17
2022-11-27T10:56:24.147Z,16.8
2022-11-27T10:57:26.347Z,16.8
2022-11-27T10:58:28.824Z,16.9
2022-11-27T11:00:36.023Z,16.8
2022-11-27T11:01:38.685Z,16.9
2022-11-27T11:02:41.664Z,16.8
2022-11-27T11:03:44.465Z,16.8
2022-11-27T11:06:56.759Z,16.8
2022-11-27T11:07:59.430Z,16.8
2022-11-27T11:09:02.227Z,16.8
2022-11-27T11:10:04.748Z,16.8
2022-11-27T11:11:07.217Z,16.8
2022-11-27T11:12:09.151Z,16.8
2022-11-27T11:13:11.620Z,16.9
2022-11-27T11:14:13.616Z,16.9
2022-11-27T11:15:15.815Z,16.9
2022-11-27T11:17:23.189Z,16.8
2022-11-27T11:18:26.168Z,16.9
2022-11-27T11:19:28.646Z,16.8
2022-11-27T11:20:30.966Z,16.8
2022-11-27T11:21:33.440Z,16.8
2022-11-27T11:22:35.778Z,16.9
2022-11-27T11:23:38.249Z,16.8
2022-11-27T11:24:41.657Z,16.8
2022-11-27T11:25:44.766Z,16.8
2022-11-27T11:26:47.271Z,16.8
2022-11-27T11:27:49.204Z,16.7
2022-11-27T11:28:51.128Z,16.8
2022-11-27T11:29:53.323Z,16.9
2022-11-27T11:30:55.534Z,16.8
2022-11-27T11:31:57.894Z,16.8
2022-11-27T11:33:00.665Z,16.8
2022-11-27T11:34:03.180Z,16.8
2022-11-27T11:35:05.674Z,16.8
2022-11-27T11:36:07.721Z,16.8
2022-11-27T11:37:10.236Z,16.8
2022-11-27T11:38:12.855Z,16.8
2022-11-27T11:39:15.071Z,16.8
2022-11-27T11:40:17.913Z,16.8
2022-11-27T11:41:20.283Z,16.8
2022-11-27T11:42:22.191Z,16.8
2022-11-27T11:43:24.678Z,16.9
2022-11-27T11:44:27.147Z,16.8
2022-11-27T11:46:34.301Z,16.9
2022-11-27T11:47:36.888Z,16.7
2022-11-27T11:48:39.450Z,16.8
2022-11-27T11:49:41.671Z,16.9
2022-11-27T11:50:44.166Z,16.8
2022-11-27T11:51:46.475Z,16.8
2022-11-27T11:52:48.397Z,16.8
2022-11-27T11:53:50.729Z,16.9
2022-11-27T11:54:52.921Z,16.8
2022-11-27T11:55:55.589Z,16.9
2022-11-27T11:56:57.807Z,16.8
2022-11-27T11:58:00.336Z,16.9
2022-11-27T11:59:02.361Z,16.7
2022-11-27T12:00:04.583Z,16.9
2022-11-27T12:02:11.892Z,16.8
2022-11-27T12:03:14.664Z,16.8
2022-11-27T12:04:17.275Z,16.8
2022-11-27T12:05:19.737Z,16.9
2022-11-27T12:06:21.935Z,16.8
2022-11-27T12:07:24.636Z,16.8
2022-11-27T12:08:27.133Z,16.8
2022-11-27T12:09:29.532Z,16.9
2022-11-27T12:10:31.731Z,16.7
2022-11-27T12:11:34.573Z,16.8
2022-11-27T12:12:37.065Z,16.8
2022-11-27T12:13:39.305Z,16.8
2022-11-27T12:14:42.691Z,16.8
2022-11-27T12:15:45.502Z,16.8
2022-11-27T12:16:48.132Z,16.8
2022-11-27T12:17:50.655Z,16.8
2022-11-27T12:18:53.135Z,16.8
2022-11-27T12:19:55.080Z,16.8
2022-11-27T12:20:57.556Z,16.8
2022-11-27T12:22:00.051Z,16.7
2022-11-27T12:23:02.357Z,16.9
2022-11-27T12:24:04.624Z,16.8
2022-11-27T12:25:06.972Z,16.7
2022-11-27T12:26:09.166Z,16.8
2022-11-27T12:27:11.991Z,16.8
2022-11-27T12:28:13.918Z,16.8
2022-11-27T12:29:16.400Z,16.8
2022-11-27T12:30:18.613Z,16.8
2022-11-27T12:31:20.923Z,16.7
2022-11-27T12:32:22.735Z,16.8
2022-11-27T12:33:24.405Z,16.8
2022-11-27T12:34:26.895Z,16.8
2022-11-27T12:35:29.092Z,16.8
2022-11-27T12:36:31.577Z,16.9
2022-11-27T12:37:33.789Z,16.8
2022-11-27T12:38:36.123Z,16.8
2022-11-27T12:39:38.614Z,16.8
2022-11-27T12:40:41.226Z,16.8
2022-11-27T12:41:43.421Z,16.8
2022-11-27T12:42:46.237Z,16.8
2022-11-27T12:43:48.726Z,16.8
2022-11-27T12:44:50.937Z,16.8
2022-11-27T12:45:53.610Z,16.8
2022-11-27T12:46:56.198Z,16.8
2022-11-27T12:47:58.402Z,16.8
2022-11-27T12:49:00.344Z,16.8
2022-11-27T12:50:02.834Z,16.8
2022-11-27T12:51:05.023Z,16.8
2022-11-27T12:52:06.953Z,16.9
2022-11-27T12:53:09.449Z,16.8
2022-11-27T12:54:12.039Z,16.8
2022-11-27T12:55:14.536Z,16.8
2022-11-27T12:56:16.885Z,16.7
2022-11-27T12:57:19.369Z,16.8
2022-11-27T12:58:25.334Z,16.8
2022-11-27T12:59:32.508Z,16.8
2022-11-27T13:00:34.870Z,16.8
2022-11-27T13:01:37.224Z,16.8
2022-11-27T13:02:39.943Z,16.8
2022-11-27T13:03:42.454Z,16.8
2022-11-27T13:04:44.523Z,16.8
2022-11-27T13:05:46.724Z,16.8
2022-11-27T13:06:49.214Z,16.9
2022-11-27T13:07:51.889Z,16.8
2022-11-27T13:08:54.594Z,16.8
2022-11-27T13:09:56.933Z,16.7
2022-11-27T13:10:59.144Z,16.8
2022-11-27T13:12:01.762Z,16.8
2022-11-27T13:13:03.784Z,16.8
2022-11-27T13:14:06.009Z,16.8
2022-11-27T13:15:08.456Z,16.7
2022-11-27T13:16:11.172Z,16.8
2022-11-27T13:17:13.930Z,16.8
2022-11-27T13:18:16.128Z,16.8
2022-11-27T13:19:18.621Z,16.8
2022-11-27T13:20:21.099Z,16.8
2022-11-27T13:21:23.577Z,16.8
2022-11-27T13:22:25.777Z,16.8
2022-11-27T13:23:27.998Z,16.8
2022-11-27T13:24:30.197Z,16.8
2022-11-27T13:25:32.530Z,16.7
2022-11-27T13:26:35.010Z,16.8
2022-11-27T13:27:37.336Z,16.8
2022-11-27T13:28:39.526Z,16.7
2022-11-27T13:29:41.727Z,16.8
2022-11-27T13:30:43.883Z,16.7
2022-11-27T13:31:46.674Z,16.8
2022-11-27T13:32:49.088Z,16.8
2022-11-27T13:33:51.583Z,16.8
2022-11-27T13:34:53.800Z,16.7
2022-11-27T13:35:56.295Z,16.8
2022-11-27T13:36:58.303Z,16.8
2022-11-27T13:38:00.218Z,16.8
2022-11-27T13:39:02.173Z,16.8
2022-11-27T13:40:04.667Z,16.8
2022-11-27T13:41:07.011Z,16.7
2022-11-27T13:42:09.502Z,16.8
2022-11-27T13:43:11.838Z,16.8
2022-11-27T13:44:14.046Z,16.8
2022-11-27T13:45:16.236Z,16.8
2022-11-27T13:46:18.605Z,16.8
2022-11-27T13:47:21.589Z,16.8
2022-11-27T13:48:24.086Z,16.8
2022-11-27T13:49:26.294Z,16.8
2022-11-27T13:51:33.765Z,16.8
2022-11-27T13:52:35.983Z,16.7
2022-11-27T13:53:38.458Z,16.8
2022-11-27T13:54:40.692Z,16.8
2022-11-27T13:55:43.955Z,16.8
2022-11-27T13:56:46.557Z,16.8
2022-11-27T13:57:48.749Z,16.8
2022-11-27T13:58:50.810Z,16.8
2022-11-27T13:59:53.283Z,16.7
2022-11-27T14:00:55.838Z,16.7
2022-11-27T14:01:58.761Z,16.7
2022-11-27T14:03:01.411Z,16.8
2022-11-27T14:04:03.884Z,16.7
2022-11-27T14:05:06.362Z,16.7
2022-11-27T14:06:08.869Z,16.8
2022-11-27T14:07:11.673Z,16.7
2022-11-27T14:08:14.426Z,16.8
2022-11-27T14:09:16.910Z,16.8
2022-11-27T14:10:18.585Z,16.8
2022-11-27T14:11:21.090Z,16.8
2022-11-27T14:12:23.435Z,16.8
2022-11-27T14:14:31.023Z,16.8
2022-11-27T14:15:33.779Z,16.8
2022-11-27T14:16:36.565Z,16.8
2022-11-27T14:17:39.302Z,16.7
2022-11-27T14:18:41.935Z,16.7
2022-11-27T14:19:44.420Z,16.8
2022-11-27T14:20:46.914Z,16.8
2022-11-27T14:21:49.418Z,16.8
2022-11-27T14:23:56.344Z,16.8
2022-11-27T14:24:58.557Z,16.7